createdAt,value
2023-02-22T00:00:46.566Z,0.00
2023-02-22T00:01:46.659Z,0.00
2023-02-22T00:02:46.604Z,0.00
2023-02-22T00:03:46.572Z,0.00
2023-02-22T00:04:46.513Z,0.00
2023-02-22T00:05:46.554Z,0.00
2023-02-22T00:06:46.496Z,0.00
2023-02-22T00:07:46.503Z,0.00
2023-02-22T00:08:46.466Z,0.00
2023-02-22T00:09:46.513Z,0.00
2023-02-22T00:10:46.456Z,0.00
2023-02-22T00:11:46.469Z,0.00
2023-02-22T00:12:46.480Z,0.00
2023-02-22T00:13:46.440Z,0.00
2023-02-22T00:14:46.406Z,0.00
2023-02-22T00:15:46.438Z,0.00
2023-02-22T00:16:46.396Z,0.00
2023-02-22T00:17:46.413Z,0.00
2023-02-22T00:18:46.353Z,0.00
2023-02-22T00:19:46.577Z,0.00
2023-02-22T00:20:46.345Z,0.00
2023-02-22T00:21:46.355Z,0.00
2023-02-22T00:22:46.349Z,0.00
2023-02-22T00:23:46.353Z,0.00
2023-02-22T00:24:46.314Z,0.00
2023-02-22T00:25:46.314Z,0.00
2023-02-22T00:26:46.287Z,0.00
2023-02-22T00:27:46.286Z,0.00
2023-02-22T00:28:46.251Z,0.00
2023-02-22T00:29:46.274Z,0.00
2023-02-22T00:30:46.238Z,0.00
2023-02-22T00:31:46.279Z,0.00
2023-02-22T00:32:46.369Z,0.00
2023-02-22T00:33:46.240Z,0.00
2023-02-22T00:34:46.225Z,0.00
2023-02-22T00:35:46.189Z,0.00
2023-02-22T00:36:46.187Z,0.00
2023-02-22T00:37:46.169Z,0.00
2023-02-22T00:38:46.130Z,0.00
2023-02-22T00:39:46.508Z,0.00
2023-02-22T00:40:46.118Z,0.00
2023-02-22T00:41:46.264Z,0.00
2023-02-22T00:42:46.092Z,0.00
2023-02-22T00:43:46.122Z,0.00
2023-02-22T00:44:46.059Z,0.00
2023-02-22T00:45:46.093Z,0.00
2023-02-22T00:46:46.056Z,0.00
2023-02-22T00:47:46.066Z,0.00
2023-02-22T00:48:46.076Z,0.00
2023-02-22T00:49:46.070Z,0.00
2023-02-22T00:50:46.009Z,0.00
2023-02-22T00:51:46.012Z,0.00
2023-02-22T00:52:45.987Z,0.00
2023-02-22T00:53:45.986Z,0.00
2023-02-22T00:54:45.956Z,0.00
2023-02-22T00:55:45.984Z,0.00
2023-02-22T00:56:45.937Z,0.00
2023-02-22T00:57:45.946Z,0.00
2023-02-22T00:58:45.911Z,0.00
2023-02-22T00:59:45.941Z,0.00
2023-02-22T01:00:45.920Z,0.00
2023-02-22T01:01:46.016Z,0.00
2023-02-22T01:02:45.867Z,0.00
2023-02-22T01:03:45.890Z,0.00
2023-02-22T01:04:45.853Z,0.00
2023-02-22T01:05:45.880Z,0.00
2023-02-22T01:06:45.837Z,0.00
2023-02-22T01:07:45.828Z,0.00
2023-02-22T01:08:45.826Z,0.00
2023-02-22T01:09:45.812Z,0.00
2023-02-22T01:10:45.786Z,0.00
2023-02-22T01:11:45.802Z,0.00
2023-02-22T01:12:45.763Z,0.00
2023-02-22T01:13:45.764Z,0.00
2023-02-22T01:14:45.741Z,0.00
2023-02-22T01:15:45.755Z,0.00
2023-02-22T01:16:45.731Z,0.00
2023-02-22T01:17:45.735Z,0.00
2023-02-22T01:18:45.696Z,0.00
2023-02-22T01:19:45.719Z,0.00
2023-02-22T01:20:45.663Z,0.00
2023-02-22T01:21:45.704Z,0.00
2023-02-22T01:22:45.667Z,0.00
2023-02-22T01:23:45.661Z,0.00
2023-02-22T01:24:45.657Z,0.00
2023-02-22T01:25:45.699Z,0.00
2023-02-22T01:26:45.623Z,0.00
2023-02-22T01:27:45.643Z,0.00
2023-02-22T01:28:45.592Z,0.00
2023-02-22T01:29:45.602Z,0.00
2023-02-22T01:30:45.680Z,0.00
2023-02-22T01:31:45.619Z,0.00
2023-02-22T01:32:45.591Z,0.00
2023-02-22T01:33:45.558Z,0.00
2023-02-22T01:34:45.524Z,0.00
2023-02-22T01:35:45.568Z,0.00
2023-02-22T01:36:45.558Z,0.00
2023-02-22T01:37:46.069Z,0.00
2023-02-22T01:38:45.499Z,0.00
2023-02-22T01:39:45.515Z,0.00
2023-02-22T01:40:45.579Z,0.00
2023-02-22T01:41:45.583Z,0.00
2023-02-22T01:42:45.486Z,0.00
2023-02-22T01:43:45.710Z,0.00
2023-02-22T01:44:45.407Z,0.00
2023-02-22T01:45:45.486Z,0.00
2023-02-22T01:46:45.450Z,0.00
2023-02-22T01:47:45.399Z,0.00
2023-02-22T01:48:45.382Z,0.00
2023-02-22T01:49:45.387Z,0.00
2023-02-22T01:50:45.348Z,0.00
2023-02-22T01:51:45.378Z,0.00
2023-02-22T01:52:45.333Z,0.00
2023-02-22T01:53:45.357Z,0.00
2023-02-22T01:54:45.284Z,0.00
2023-02-22T01:55:45.307Z,0.00
2023-02-22T01:56:45.307Z,0.00
2023-02-22T01:57:45.273Z,0.00
2023-02-22T01:58:45.273Z,0.00
2023-02-22T01:59:45.274Z,0.00
2023-02-22T02:00:45.255Z,0.00
2023-02-22T02:01:45.806Z,0.00
2023-02-22T02:02:45.226Z,0.00
2023-02-22T02:03:45.232Z,0.00
2023-02-22T02:04:45.243Z,0.00
2023-02-22T02:05:45.182Z,0.00
2023-02-22T02:06:45.187Z,0.00
2023-02-22T02:07:45.164Z,0.00
2023-02-22T02:08:45.174Z,0.00
2023-02-22T02:09:45.136Z,0.00
2023-02-22T02:10:45.158Z,0.00
2023-02-22T02:11:45.100Z,0.00
2023-02-22T02:12:45.113Z,0.00
2023-02-22T02:13:45.094Z,0.00
2023-02-22T02:14:45.120Z,0.00
2023-02-22T02:15:45.064Z,0.00
2023-02-22T02:16:45.116Z,0.00
2023-02-22T02:17:45.044Z,0.00
2023-02-22T02:18:45.058Z,0.00
2023-02-22T02:19:45.048Z,0.00
2023-02-22T02:20:45.033Z,0.00
2023-02-22T02:21:45.009Z,0.00
2023-02-22T02:22:45.069Z,0.00
2023-02-22T02:23:44.973Z,0.00
2023-02-22T02:24:45.018Z,0.00
2023-02-22T02:25:44.982Z,0.00
2023-02-22T02:26:45.012Z,0.00
2023-02-22T02:27:44.953Z,0.00
2023-02-22T02:28:44.957Z,0.00
2023-02-22T02:29:44.926Z,0.00
2023-02-22T02:30:44.958Z,0.00
2023-02-22T02:31:44.994Z,0.00
2023-02-22T02:32:44.943Z,0.00
2023-02-22T02:33:44.880Z,0.00
2023-02-22T02:34:45.552Z,0.00
2023-02-22T02:35:44.847Z,0.00
2023-02-22T02:36:44.866Z,0.00
2023-02-22T02:37:44.853Z,0.00
2023-02-22T02:38:44.874Z,0.00
2023-02-22T02:39:44.836Z,0.00
2023-02-22T02:40:44.882Z,0.00
2023-02-22T02:41:44.825Z,0.00
2023-02-22T02:42:44.814Z,0.00
2023-02-22T02:43:44.772Z,0.00
2023-02-22T02:44:44.808Z,0.00
2023-02-22T02:45:44.750Z,0.00
2023-02-22T02:46:44.771Z,0.00
2023-02-22T02:47:44.725Z,0.00
2023-02-22T02:48:44.744Z,0.00
2023-02-22T02:49:44.721Z,0.00
2023-02-22T02:50:44.722Z,0.00
2023-02-22T02:51:44.698Z,0.00
2023-02-22T02:52:44.707Z,0.00
2023-02-22T02:53:44.663Z,0.00
2023-02-22T02:54:44.670Z,0.00
2023-02-22T02:55:44.697Z,0.00
2023-02-22T02:56:44.670Z,0.00
2023-02-22T02:57:44.629Z,0.00
2023-02-22T02:58:44.630Z,0.00
2023-02-22T02:59:44.595Z,0.00
2023-02-22T03:00:44.604Z,0.00
2023-02-22T03:01:44.695Z,0.00
2023-02-22T03:02:44.612Z,0.00
2023-02-22T03:03:44.710Z,0.00
2023-02-22T03:04:44.565Z,0.00
2023-02-22T03:05:44.528Z,0.00
2023-02-22T03:06:44.553Z,0.00
2023-02-22T03:07:44.563Z,0.00
2023-02-22T03:08:44.532Z,0.00
2023-02-22T03:09:44.756Z,0.00
2023-02-22T03:10:44.868Z,0.00
2023-02-22T03:11:44.507Z,0.00
2023-02-22T03:12:44.884Z,0.00
2023-02-22T03:13:44.879Z,0.00
2023-02-22T03:14:44.790Z,0.00
2023-02-22T03:15:44.438Z,0.00
2023-02-22T03:16:44.555Z,0.00
2023-02-22T03:17:44.403Z,0.00
2023-02-22T03:18:44.509Z,0.00
2023-02-22T03:19:44.381Z,0.00
2023-02-22T03:20:44.404Z,0.00
2023-02-22T03:21:44.352Z,0.00
2023-02-22T03:22:44.755Z,0.00
2023-02-22T03:23:44.340Z,0.00
2023-02-22T03:24:44.387Z,0.00
2023-02-22T03:25:44.318Z,0.00
2023-02-22T03:26:44.370Z,0.00
2023-02-22T03:27:44.291Z,0.00
2023-02-22T03:28:44.329Z,0.00
2023-02-22T03:29:44.261Z,0.00
2023-02-22T03:30:44.288Z,0.00
2023-02-22T03:31:44.727Z,0.00
2023-02-22T03:32:44.249Z,0.00
2023-02-22T03:33:44.231Z,0.00
2023-02-22T03:34:44.228Z,0.00
2023-02-22T03:35:44.223Z,0.00
2023-02-22T03:36:44.329Z,0.00
2023-02-22T03:37:44.181Z,0.00
2023-02-22T03:38:44.201Z,0.00
2023-02-22T03:39:44.198Z,0.00
2023-02-22T03:40:44.179Z,0.00
2023-02-22T03:41:44.181Z,0.00
2023-02-22T03:42:44.162Z,0.00
2023-02-22T03:43:44.139Z,0.00
2023-02-22T03:44:44.451Z,0.00
2023-02-22T03:45:44.095Z,0.00
2023-02-22T03:46:44.146Z,0.00
2023-02-22T03:47:44.088Z,0.00
2023-02-22T03:48:44.086Z,0.00
2023-02-22T03:49:44.038Z,0.00
2023-02-22T03:50:44.099Z,0.00
2023-02-22T03:51:44.029Z,0.00
2023-02-22T03:52:44.278Z,0.00
2023-02-22T03:53:44.050Z,0.00
2023-02-22T03:54:44.008Z,0.00
2023-02-22T03:55:43.976Z,0.00
2023-02-22T03:56:43.988Z,0.00
2023-02-22T03:57:43.979Z,0.00
2023-02-22T03:58:44.050Z,0.00
2023-02-22T03:59:43.931Z,0.00
2023-02-22T04:00:43.937Z,0.00
2023-02-22T04:01:43.925Z,0.00
2023-02-22T04:02:44.013Z,0.00
2023-02-22T04:03:44.016Z,0.00
2023-02-22T04:04:44.304Z,0.00
2023-02-22T04:05:43.856Z,0.00
2023-02-22T04:06:43.887Z,0.00
2023-02-22T04:07:43.849Z,0.00
2023-02-22T04:08:43.866Z,0.00
2023-02-22T04:09:43.824Z,0.00
2023-02-22T04:10:43.877Z,0.00
2023-02-22T04:11:43.802Z,0.00
2023-02-22T04:12:43.826Z,0.00
2023-02-22T04:13:43.785Z,0.00
2023-02-22T04:14:43.891Z,0.00
2023-02-22T04:15:43.841Z,0.00
2023-02-22T04:16:43.775Z,0.00
2023-02-22T04:17:43.745Z,0.00
2023-02-22T04:18:43.822Z,0.00
2023-02-22T04:19:43.735Z,0.00
2023-02-22T04:20:43.727Z,0.00
2023-02-22T04:21:43.724Z,0.00
2023-02-22T04:22:43.714Z,0.00
2023-02-22T04:23:43.675Z,0.00
2023-02-22T04:24:44.395Z,0.00
2023-02-22T04:25:43.679Z,0.00
2023-02-22T04:26:43.665Z,0.00
2023-02-22T04:27:43.627Z,0.00
2023-02-22T04:28:43.640Z,0.00
2023-02-22T04:29:43.624Z,0.00
2023-02-22T04:30:43.644Z,0.00
2023-02-22T04:31:43.570Z,0.00
2023-02-22T04:32:43.598Z,0.00
2023-02-22T04:33:43.554Z,0.00
2023-02-22T04:34:43.585Z,0.00
2023-02-22T04:35:43.535Z,0.00
2023-02-22T04:36:43.637Z,0.00
2023-02-22T04:37:43.821Z,0.00
2023-02-22T04:38:43.531Z,0.00
2023-02-22T04:39:43.577Z,0.00
2023-02-22T04:40:43.511Z,0.00
2023-02-22T04:41:43.481Z,0.00
2023-02-22T04:42:43.491Z,0.00
2023-02-22T04:43:43.500Z,0.00
2023-02-22T04:44:43.484Z,0.00
2023-02-22T04:45:43.497Z,0.00
2023-02-22T04:46:43.547Z,0.00
2023-02-22T04:47:43.404Z,0.00
2023-02-22T04:48:43.420Z,0.00
2023-02-22T04:49:43.399Z,0.00
2023-02-22T04:50:43.516Z,0.00
2023-02-22T04:51:43.377Z,0.00
2023-02-22T04:52:43.396Z,0.00
2023-02-22T04:53:43.534Z,0.00
2023-02-22T04:54:43.360Z,0.00
2023-02-22T04:55:43.329Z,0.00
2023-02-22T04:56:43.329Z,0.00
2023-02-22T04:57:43.315Z,0.00
2023-02-22T04:58:43.300Z,0.00
2023-02-22T04:59:43.279Z,0.00
2023-02-22T05:00:43.301Z,0.00
2023-02-22T05:01:43.269Z,0.00
2023-02-22T05:02:43.354Z,0.00
2023-02-22T05:03:43.231Z,0.00
2023-02-22T05:04:43.361Z,0.00
2023-02-22T05:05:43.315Z,0.00
2023-02-22T05:06:43.427Z,0.00
2023-02-22T05:07:43.192Z,0.00
2023-02-22T05:08:43.198Z,0.00
2023-02-22T05:09:43.541Z,0.00
2023-02-22T05:10:43.199Z,0.00
2023-02-22T05:11:43.159Z,0.00
2023-02-22T05:12:43.167Z,0.00
2023-02-22T05:13:43.148Z,0.00
2023-02-22T05:14:43.246Z,0.00
2023-02-22T05:15:43.135Z,0.00
2023-02-22T05:16:43.837Z,0.00
2023-02-22T05:17:43.385Z,0.00
2023-02-22T05:18:43.612Z,0.00
2023-02-22T05:19:43.047Z,0.00
2023-02-22T05:20:43.071Z,0.00
2023-02-22T05:21:43.085Z,0.00
2023-02-22T05:22:43.118Z,0.00
2023-02-22T05:23:43.068Z,0.00
2023-02-22T05:24:43.025Z,0.00
2023-02-22T05:25:42.988Z,0.00
2023-02-22T05:26:43.056Z,0.00
2023-02-22T05:27:42.978Z,0.00
2023-02-22T05:28:42.992Z,0.00
2023-02-22T05:29:42.932Z,0.00
2023-02-22T05:30:43.007Z,0.00
2023-02-22T05:31:43.035Z,0.00
2023-02-22T05:32:42.943Z,0.00
2023-02-22T05:33:42.922Z,0.00
2023-02-22T05:34:42.925Z,0.00
2023-02-22T05:35:42.884Z,0.00
2023-02-22T05:36:42.916Z,0.00
2023-02-22T05:37:42.945Z,0.00
2023-02-22T05:38:42.875Z,0.00
2023-02-22T05:39:42.834Z,0.00
2023-02-22T05:40:42.846Z,0.00
2023-02-22T05:41:42.980Z,0.00
2023-02-22T05:42:42.847Z,0.00
2023-02-22T05:43:42.986Z,0.00
2023-02-22T05:44:42.806Z,0.00
2023-02-22T05:45:42.797Z,0.00
2023-02-22T05:46:42.844Z,0.00
2023-02-22T05:47:42.992Z,0.00
2023-02-22T05:48:42.755Z,0.00
2023-02-22T05:49:42.802Z,0.00
2023-02-22T05:50:42.847Z,0.00
2023-02-22T05:51:42.714Z,0.00
2023-02-22T05:52:42.737Z,0.00
2023-02-22T05:53:42.708Z,0.00
2023-02-22T05:54:42.736Z,0.00
2023-02-22T05:55:43.357Z,0.00
2023-02-22T05:56:42.713Z,0.00
2023-02-22T05:57:42.662Z,0.00
2023-02-22T05:58:42.675Z,0.00
2023-02-22T05:59:42.754Z,0.00
2023-02-22T06:00:42.637Z,0.00
2023-02-22T06:01:42.606Z,0.00
2023-02-22T06:02:42.623Z,4.00
2023-02-22T06:03:42.634Z,4.00
2023-02-22T06:04:42.579Z,0.00
2023-02-22T06:05:42.632Z,4.00
2023-02-22T06:06:42.637Z,4.00
2023-02-22T06:07:42.550Z,4.00
2023-02-22T06:08:42.621Z,8.00
2023-02-22T06:09:42.513Z,4.00
2023-02-22T06:10:42.508Z,4.00
2023-02-22T06:11:42.535Z,12.00
2023-02-22T06:12:42.656Z,12.00
2023-02-22T06:13:42.665Z,12.00
2023-02-22T06:14:42.465Z,12.00
2023-02-22T06:15:42.465Z,20.00
2023-02-22T06:16:42.427Z,20.00
2023-02-22T06:17:42.444Z,24.00
2023-02-22T06:18:42.436Z,28.00
2023-02-22T06:19:42.425Z,28.00
2023-02-22T06:20:42.407Z,32.00
2023-02-22T06:21:42.397Z,36.00
2023-02-22T06:22:42.398Z,44.00
2023-02-22T06:23:42.428Z,48.00
2023-02-22T06:24:42.335Z,52.00
2023-02-22T06:25:42.352Z,60.00
2023-02-22T06:26:42.335Z,68.00
2023-02-22T06:27:42.670Z,72.00
2023-02-22T06:28:42.682Z,80.00
2023-02-22T06:29:42.309Z,88.00
2023-02-22T06:30:42.317Z,96.00
2023-02-22T06:31:42.388Z,100.00
2023-02-22T06:32:42.270Z,108.00
2023-02-22T06:33:42.612Z,116.00
2023-02-22T06:34:42.229Z,124.00
2023-02-22T06:35:42.277Z,132.00
2023-02-22T06:36:42.216Z,144.00
2023-02-22T06:37:42.213Z,156.00
2023-02-22T06:38:42.519Z,168.00
2023-02-22T06:39:42.212Z,180.00
2023-02-22T06:40:42.181Z,196.00
2023-02-22T06:41:42.183Z,208.00
2023-02-22T06:42:42.149Z,224.00
2023-02-22T06:43:42.160Z,240.00
2023-02-22T06:44:42.125Z,256.00
2023-02-22T06:45:42.176Z,272.00
2023-02-22T06:46:42.102Z,288.00
2023-02-22T06:47:42.406Z,304.00
2023-02-22T06:48:42.084Z,316.00
2023-02-22T06:49:42.399Z,332.00
2023-02-22T06:50:42.080Z,344.00
2023-02-22T06:51:42.076Z,364.00
2023-02-22T06:52:42.064Z,380.00
2023-02-22T06:53:42.052Z,396.00
2023-02-22T06:54:42.020Z,412.00
2023-02-22T06:55:42.242Z,428.00
2023-02-22T06:56:41.993Z,448.00
2023-02-22T06:57:42.000Z,464.00
2023-02-22T06:58:41.974Z,484.00
2023-02-22T06:59:41.976Z,500.00
2023-02-22T07:00:41.996Z,516.00
2023-02-22T07:01:42.000Z,536.00
2023-02-22T07:02:41.919Z,552.00
2023-02-22T07:03:41.982Z,568.00
2023-02-22T07:04:43.553Z,584.00
2023-02-22T07:05:42.222Z,596.00
2023-02-22T07:06:42.305Z,612.00
2023-02-22T07:07:42.706Z,624.00
2023-02-22T07:08:42.009Z,632.00
2023-02-22T07:09:42.191Z,648.00
2023-02-22T07:10:41.849Z,672.00
2023-02-22T07:11:41.869Z,684.00
2023-02-22T07:12:41.821Z,704.00
2023-02-22T07:13:41.846Z,708.00
2023-02-22T07:14:41.802Z,716.00
2023-02-22T07:15:41.803Z,732.00
2023-02-22T07:16:41.867Z,752.00
2023-02-22T07:17:41.780Z,768.00
2023-02-22T07:18:41.764Z,796.00
2023-02-22T07:19:41.793Z,816.00
2023-02-22T07:20:41.739Z,824.00
2023-02-22T07:21:41.761Z,828.00
2023-02-22T07:22:41.720Z,848.00
2023-02-22T07:23:41.837Z,864.00
2023-02-22T07:24:41.694Z,884.00
2023-02-22T07:25:41.693Z,904.00
2023-02-22T07:26:41.717Z,912.00
2023-02-22T07:27:41.677Z,916.00
2023-02-22T07:28:41.734Z,952.00
2023-02-22T07:29:41.752Z,928.00
2023-02-22T07:30:41.808Z,904.00
2023-02-22T07:31:41.649Z,912.00
2023-02-22T07:32:41.697Z,956.00
2023-02-22T07:33:41.612Z,992.00
2023-02-22T07:34:41.610Z,1028.00
2023-02-22T07:35:41.602Z,1052.00
2023-02-22T07:36:41.584Z,1084.00
2023-02-22T07:37:41.575Z,1116.00
2023-02-22T07:38:41.615Z,1152.00
2023-02-22T07:39:41.723Z,1160.00
2023-02-22T07:40:41.520Z,1152.00
2023-02-22T07:41:41.534Z,1164.00
2023-02-22T07:42:41.480Z,1152.00
2023-02-22T07:43:41.533Z,1156.00
2023-02-22T07:44:41.649Z,1192.00
2023-02-22T07:45:41.641Z,1208.00
2023-02-22T07:46:41.448Z,1268.00
2023-02-22T07:47:41.602Z,1300.00
2023-02-22T07:48:41.572Z,1320.00
2023-02-22T07:49:41.689Z,1348.00
2023-02-22T07:50:41.689Z,1364.00
2023-02-22T07:51:41.971Z,1384.00
2023-02-22T07:52:41.413Z,1400.00
2023-02-22T07:53:41.389Z,1428.00
2023-02-22T07:54:56.297Z,1448.00
2023-02-22T07:55:41.841Z,1468.00
2023-02-22T07:56:41.344Z,1484.00
2023-02-22T07:57:41.351Z,1500.00
2023-02-22T07:58:41.314Z,1532.00
2023-02-22T07:59:41.353Z,1540.00
2023-02-22T08:00:41.339Z,1516.00
2023-02-22T08:01:41.312Z,1532.00
2023-02-22T08:02:41.322Z,1564.00
2023-02-22T08:03:41.351Z,1620.00
2023-02-22T08:04:41.251Z,1644.00
2023-02-22T08:05:41.289Z,1680.00
2023-02-22T08:06:41.262Z,1724.00
2023-02-22T08:07:41.237Z,1776.00
2023-02-22T08:08:41.197Z,1828.00
2023-02-22T08:09:41.238Z,1860.00
2023-02-22T08:10:41.312Z,1912.00
2023-02-22T08:11:41.301Z,1944.00
2023-02-22T08:12:41.163Z,1984.00
2023-02-22T08:13:41.251Z,2032.00
2023-02-22T08:14:41.144Z,2092.00
2023-02-22T08:15:41.153Z,2128.00
2023-02-22T08:16:41.167Z,2160.00
2023-02-22T08:17:41.137Z,2200.00
2023-02-22T08:18:41.087Z,2236.00
2023-02-22T08:19:41.125Z,2256.00
2023-02-22T08:20:41.122Z,2216.00
2023-02-22T08:21:41.089Z,2276.00
2023-02-22T08:22:41.046Z,2328.00
2023-02-22T08:23:41.185Z,2348.00
2023-02-22T08:24:41.056Z,2356.00
2023-02-22T08:25:41.067Z,2368.00
2023-02-22T08:26:41.007Z,2380.00
2023-02-22T08:27:41.056Z,2384.00
2023-02-22T08:28:41.009Z,2392.00
2023-02-22T08:29:41.013Z,2392.00
2023-02-22T08:30:41.023Z,2376.00
2023-02-22T08:31:41.018Z,2316.00
2023-02-22T08:32:40.957Z,2340.00
2023-02-22T08:33:41.043Z,2324.00
2023-02-22T08:34:40.943Z,2368.00
2023-02-22T08:35:40.972Z,2372.00
2023-02-22T08:36:40.905Z,2400.00
2023-02-22T08:37:40.908Z,2416.00
2023-02-22T08:38:40.926Z,2420.00
2023-02-22T08:39:40.967Z,2428.00
2023-02-22T08:40:40.864Z,2440.00
2023-02-22T08:41:40.855Z,2436.00
2023-02-22T08:42:40.849Z,2440.00
2023-02-22T08:43:40.859Z,2420.00
2023-02-22T08:44:40.816Z,2416.00
2023-02-22T08:45:40.922Z,2412.00
2023-02-22T08:46:40.781Z,2408.00
2023-02-22T08:47:40.825Z,2412.00
2023-02-22T08:48:40.763Z,2408.00
2023-02-22T08:49:40.781Z,2436.00
2023-02-22T08:50:40.785Z,2476.00
2023-02-22T08:51:40.754Z,2500.00
2023-02-22T08:52:40.766Z,2524.00
2023-02-22T08:53:40.792Z,2544.00
2023-02-22T08:54:40.695Z,2568.00
2023-02-22T08:55:40.721Z,2576.00
2023-02-22T08:56:40.688Z,2584.00
2023-02-22T08:57:40.688Z,2592.00
2023-02-22T08:58:40.639Z,2600.00
2023-02-22T08:59:40.650Z,2596.00
2023-02-22T09:00:40.632Z,2612.00
2023-02-22T09:01:40.659Z,2628.00
2023-02-22T09:02:40.633Z,2652.00
2023-02-22T09:03:40.673Z,2676.00
2023-02-22T09:04:40.580Z,2688.00
2023-02-22T09:05:40.673Z,2712.00
2023-02-22T09:06:40.579Z,2732.00
2023-02-22T09:07:40.586Z,2748.00
2023-02-22T09:08:40.533Z,2764.00
2023-02-22T09:09:40.561Z,2780.00
2023-02-22T09:10:40.642Z,2792.00
2023-02-22T09:11:40.516Z,2792.00
2023-02-22T09:12:40.494Z,2784.00
2023-02-22T09:13:40.502Z,2744.00
2023-02-22T09:14:40.457Z,2756.00
2023-02-22T09:15:40.484Z,2752.00
2023-02-22T09:16:40.505Z,2736.00
2023-02-22T09:17:40.470Z,2728.00
2023-02-22T09:18:44.199Z,2720.00
2023-02-22T09:19:40.441Z,2732.00
2023-02-22T09:20:40.385Z,2732.00
2023-02-22T09:21:40.406Z,2744.00
2023-02-22T09:22:40.396Z,2756.00
2023-02-22T09:23:40.400Z,2772.00
2023-02-22T09:24:40.349Z,2788.00
2023-02-22T09:25:40.380Z,2804.00
2023-02-22T09:26:40.367Z,2812.00
2023-02-22T09:27:40.350Z,2824.00
2023-02-22T09:28:40.309Z,2892.00
2023-02-22T09:29:40.320Z,2952.00
2023-02-22T09:30:40.313Z,2964.00
2023-02-22T09:31:41.101Z,2992.00
2023-02-22T09:32:40.484Z,3024.00
2023-02-22T09:33:40.271Z,3080.00
2023-02-22T09:34:40.246Z,3068.00
2023-02-22T09:35:40.263Z,3120.00
2023-02-22T09:36:40.228Z,3204.00
2023-02-22T09:37:40.250Z,3228.00
2023-02-22T09:38:40.203Z,3248.00
2023-02-22T09:39:40.228Z,3280.00
2023-02-22T09:40:40.183Z,3288.00
2023-02-22T09:41:40.205Z,3328.00
2023-02-22T09:42:40.412Z,3392.00
2023-02-22T09:43:40.186Z,3408.00
2023-02-22T09:44:40.138Z,3424.00
2023-02-22T09:45:40.179Z,3424.00
2023-02-22T09:46:40.104Z,3432.00
2023-02-22T09:47:40.167Z,3440.00
2023-02-22T09:48:40.084Z,3436.00
2023-02-22T09:49:40.136Z,3448.00
2023-02-22T09:50:40.057Z,3456.00
2023-02-22T09:51:40.188Z,3496.00
2023-02-22T09:52:40.189Z,3528.00
2023-02-22T09:53:40.044Z,3552.00
2023-02-22T09:54:40.022Z,3580.00
2023-02-22T09:55:40.038Z,3584.00
2023-02-22T09:56:39.985Z,3596.00
2023-02-22T09:57:40.023Z,3616.00
2023-02-22T09:58:41.812Z,3632.00
2023-02-22T09:59:39.984Z,3636.00
2023-02-22T10:00:39.944Z,3656.00
2023-02-22T10:01:39.993Z,3680.00
2023-02-22T10:02:39.926Z,3700.00
2023-02-22T10:03:39.956Z,3724.00
2023-02-22T10:04:39.908Z,3752.00
2023-02-22T10:05:40.040Z,3768.00
2023-02-22T10:06:39.894Z,3768.00
2023-02-22T10:07:40.289Z,3788.00
2023-02-22T10:08:39.863Z,3808.00
2023-02-22T10:09:39.864Z,3836.00
2023-02-22T10:10:39.864Z,3844.00
2023-02-22T10:11:39.834Z,3864.00
2023-02-22T10:12:39.838Z,3896.00
2023-02-22T10:13:39.920Z,3912.00
2023-02-22T10:14:39.829Z,3940.00
2023-02-22T10:15:39.813Z,3952.00
2023-02-22T10:16:39.793Z,3968.00
2023-02-22T10:17:39.774Z,3984.00
2023-02-22T10:18:39.768Z,3984.00
2023-02-22T10:19:39.754Z,3980.00
2023-02-22T10:20:39.715Z,3988.00
2023-02-22T10:21:39.737Z,3976.00
2023-02-22T10:22:39.715Z,3956.00
2023-02-22T10:23:39.703Z,3940.00
2023-02-22T10:24:39.747Z,3924.00
2023-02-22T10:25:39.692Z,3908.00
2023-02-22T10:26:39.671Z,3900.00
2023-02-22T10:27:39.692Z,3888.00
2023-02-22T10:28:39.626Z,3864.00
2023-02-22T10:29:39.630Z,3844.00
2023-02-22T10:30:39.656Z,3812.00
2023-02-22T10:31:39.639Z,3784.00
2023-02-22T10:32:39.873Z,3744.00
2023-02-22T10:33:39.578Z,3728.00
2023-02-22T10:34:39.592Z,3728.00
2023-02-22T10:35:39.560Z,3720.00
2023-02-22T10:36:39.611Z,3748.00
2023-02-22T10:37:39.652Z,3820.00
2023-02-22T10:38:39.549Z,3856.00
2023-02-22T10:39:39.535Z,3880.00
2023-02-22T10:40:39.552Z,3924.00
2023-02-22T10:41:39.491Z,3940.00
2023-02-22T10:42:39.519Z,3944.00
2023-02-22T10:43:39.524Z,3956.00
2023-02-22T10:44:39.494Z,3948.00
2023-02-22T10:45:39.457Z,3952.00
2023-02-22T10:46:39.460Z,3952.00
2023-02-22T10:47:39.423Z,3988.00
2023-02-22T10:48:39.453Z,4076.00
2023-02-22T10:49:39.413Z,4132.00
2023-02-22T10:50:39.420Z,4192.00
2023-02-22T10:51:39.452Z,4216.00
2023-02-22T10:52:39.571Z,4208.00
2023-02-22T10:53:39.507Z,4212.00
2023-02-22T10:54:39.400Z,4204.00
2023-02-22T10:55:39.361Z,4196.00
2023-02-22T10:56:39.380Z,4236.00
2023-02-22T10:57:39.325Z,4248.00
2023-02-22T10:58:39.359Z,4288.00
2023-02-22T10:59:39.309Z,4344.00
2023-02-22T11:00:39.330Z,4380.00
2023-02-22T11:01:39.325Z,4400.00
2023-02-22T11:02:39.300Z,4376.00
2023-02-22T11:03:39.252Z,4380.00
2023-02-22T11:04:39.291Z,4388.00
2023-02-22T11:05:39.233Z,4404.00
2023-02-22T11:06:39.238Z,4404.00
2023-02-22T11:07:39.240Z,4404.00
2023-02-22T11:08:39.243Z,4392.00
2023-02-22T11:09:39.199Z,4400.00
2023-02-22T11:10:39.224Z,4400.00
2023-02-22T11:11:39.237Z,4368.00
2023-02-22T11:12:39.235Z,4356.00
2023-02-22T11:13:39.234Z,4320.00
2023-02-22T11:14:39.181Z,4268.00
2023-02-22T11:15:39.140Z,4280.00
2023-02-22T11:16:39.551Z,4316.00
2023-02-22T11:17:39.089Z,4352.00
2023-02-22T11:18:39.107Z,4380.00
2023-02-22T11:19:39.090Z,4392.00
2023-02-22T11:20:39.117Z,4428.00
2023-02-22T11:21:39.043Z,4484.00
2023-02-22T11:22:39.064Z,4504.00
2023-02-22T11:23:39.030Z,4572.00
2023-02-22T11:24:48.760Z,4620.00
2023-02-22T11:25:40.022Z,4648.00
2023-02-22T11:26:39.070Z,4672.00
2023-02-22T11:27:38.967Z,4728.00
2023-02-22T11:28:38.978Z,4760.00
2023-02-22T11:29:38.980Z,4792.00
2023-02-22T11:30:39.128Z,4776.00
2023-02-22T11:31:39.075Z,4740.00
2023-02-22T11:32:38.949Z,4676.00
2023-02-22T11:33:38.907Z,4692.00
2023-02-22T11:34:39.258Z,4660.00
2023-02-22T11:35:39.076Z,4628.00
2023-02-22T11:36:38.899Z,4544.00
2023-02-22T11:37:38.887Z,4488.00
2023-02-22T11:38:38.871Z,4440.00
2023-02-22T11:39:38.867Z,4312.00
2023-02-22T11:40:38.860Z,4216.00
2023-02-22T11:41:38.815Z,4144.00
2023-02-22T11:42:38.839Z,4072.00
2023-02-22T11:43:38.813Z,4028.00
2023-02-22T11:44:38.802Z,3988.00
2023-02-22T11:45:44.209Z,3876.00
2023-02-22T11:46:39.801Z,3772.00
2023-02-22T11:47:38.734Z,3660.00
2023-02-22T11:48:38.754Z,3560.00
2023-02-22T11:49:38.716Z,3464.00
2023-02-22T11:50:38.734Z,3372.00
2023-02-22T11:51:38.703Z,3288.00
2023-02-22T11:52:38.705Z,3220.00
2023-02-22T11:53:38.699Z,3160.00
2023-02-22T11:54:38.819Z,3124.00
2023-02-22T11:55:43.148Z,3108.00
2023-02-22T11:56:38.726Z,3116.00
2023-02-22T11:57:38.638Z,3136.00
2023-02-22T11:58:38.644Z,3184.00
2023-02-22T11:59:38.614Z,3224.00
2023-02-22T12:00:38.625Z,3244.00
2023-02-22T12:01:38.597Z,3276.00
2023-02-22T12:02:41.647Z,3264.00
2023-02-22T12:03:39.672Z,3308.00
2023-02-22T12:04:39.529Z,3228.00
2023-02-22T12:05:38.547Z,3176.00
2023-02-22T12:06:38.566Z,3152.00
2023-02-22T12:07:38.553Z,3132.00
2023-02-22T12:08:38.577Z,3144.00
2023-02-22T12:09:38.485Z,3332.00
2023-02-22T12:10:38.505Z,3260.00
2023-02-22T12:11:38.505Z,3268.00
2023-02-22T12:12:38.557Z,3336.00
2023-02-22T12:13:38.451Z,3320.00
2023-02-22T12:14:38.473Z,3464.00
2023-02-22T12:15:38.542Z,3472.00
2023-02-22T12:16:38.440Z,3600.00
2023-02-22T12:17:40.202Z,3620.00
2023-02-22T12:18:38.426Z,3688.00
2023-02-22T12:19:38.646Z,3820.00
2023-02-22T12:20:38.382Z,4040.00
2023-02-22T12:21:38.418Z,4008.00
2023-02-22T12:22:38.364Z,4072.00
2023-02-22T12:23:38.332Z,4020.00
2023-02-22T12:24:38.418Z,3872.00
2023-02-22T12:25:38.314Z,3772.00
2023-02-22T12:26:38.697Z,3368.00
2023-02-22T12:27:38.297Z,3356.00
2023-02-22T12:28:38.351Z,3196.00
2023-02-22T12:29:38.286Z,3080.00
2023-02-22T12:30:38.338Z,2868.00
2023-02-22T12:31:38.423Z,2820.00
2023-02-22T12:32:38.294Z,2756.00
2023-02-22T12:33:38.258Z,2712.00
2023-02-22T12:34:38.377Z,2688.00
2023-02-22T12:35:38.583Z,2684.00
2023-02-22T12:36:38.232Z,2772.00
2023-02-22T12:37:38.185Z,2740.00
2023-02-22T12:38:38.238Z,3004.00
2023-02-22T12:39:51.851Z,3092.00
2023-02-22T12:40:39.161Z,3056.00
2023-02-22T12:41:38.143Z,3004.00
2023-02-22T12:42:38.177Z,3008.00